Terminal Aerodrome Forecast
Issued by NWS Blacksburg, VA

Current Version | Previous Version | Graphics & Text | Print | Product List | Glossary On
Versions: 1 2 3 4 5 6 7 8 9 10 11 12 13 14 15 16 17 18 19 20 21 22 23 24 25 26 27 28 29 30 31 32 33 34 35 36 37 38 39 40 41
329
FTUS41 KRNK 042204 AAB
TAFBLF
TAF AMD
KBLF 042204Z 0422/0518 15008G18KT P6SM -RA SCT010 OVC040
      TEMPO 0422/0424 4SM -RA BKN010
     FM050000 16007KT 2SM -RA BR OVC008
     FM050700 20005KT 5SM -RA BR OVC010
     FM050900 27008KT 5SM BR OVC007
     FM051300 30008KT P6SM OVC020
     FM051600 31008KT P6SM SCT020 BKN250=

USA.gov is the U.S. government's official web portal to all federal, state and local government web resources and services.